Terminal Aerodrome Forecast
Issued by NWS

Home | Current Version | Previous Version | Text Only | Print | Product List | Glossary On
Versions: 1 2 3 4 5 6 7 8 9 10 11 12 13 14 15 16 17 18 19 20
000
FTAK31 PAJN 280500
TAFAYA
TAF
PAYA 280520Z 2806/2906 VRB04KT P6SM -SHRA SCT020 BKN040 OVC080
     FM280900 00000KT 6SM -SHRA BR SCT008 BKN020 OVC040
     FM281500 VRB03KT P6SM VCSH SCT020 OVC040
     FM281800 24005KT P6SM VCSH BKN040 BKN080
     FM282100 24007KT P6SM VCSH SCT050 BKN100
     FM290300 VRB04KT P6SM VCSH BKN100
      AMD LTD TO CLD VIS AND WIND 2806/2810=

USA.gov is the U.S. government's official web portal to all federal, state and local government web resources and services.